Dover, Missouri
Current Conditions -  °F | °C
As of 2:55 PM on Monday 24 Nov 2014 (Local Time) from KMHL Reporting Station
Overcast Overcast  
Wind Chill: -3°   Ceiling: 3000
Heat Index:   Visibility: 10mi
Dew Point: -1°   Wind: 21mph
Humidity: 75%   Direction: 270°W
Pressure: 29.8"   Gusts: NA
Location:  39.19°N, 93.69°W
Report Text: KMHL 242055Z AUTO 27018KT 10SM OVC030 03/M01 A2980 RMK AO2
Loading
Personal Weather Stations






























Interactive Weather Map New forecast layout! Learn more

10-Day Weather Forecast

Advertisements
Track Severe Weather on mobile